sensor_id;sensor_type;location;lat;lon;timestamp;pressure;altitude;pressure_sealevel;temperature;humidity
8637;BME280;4356;49.068;8.658;2023-05-21T00:01:39;99545.69;;;23.10;40.39
8637;BME280;4356;49.068;8.658;2023-05-21T00:04:04;99540.47;;;23.09;40.41
8637;BME280;4356;49.068;8.658;2023-05-21T00:06:36;99546.25;;;23.12;40.48
8637;BME280;4356;49.068;8.658;2023-05-21T00:09:02;99545.13;;;23.08;40.66
8637;BME280;4356;49.068;8.658;2023-05-21T00:11:28;99549.78;;;23.08;40.59
8637;BME280;4356;49.068;8.658;2023-05-21T00:13:54;99549.78;;;23.08;40.54
8637;BME280;4356;49.068;8.658;2023-05-21T00:16:20;99551.44;;;23.09;40.77
8637;BME280;4356;49.068;8.658;2023-05-21T00:18:45;99533.81;;;23.00;40.56
8637;BME280;4356;49.068;8.658;2023-05-21T00:21:11;99539.88;;;23.02;40.38
8637;BME280;4356;49.068;8.658;2023-05-21T00:23:38;99534.59;;;22.95;40.68
8637;BME280;4356;49.068;8.658;2023-05-21T00:26:05;99548.66;;;23.04;40.71
8637;BME280;4356;49.068;8.658;2023-05-21T00:28:30;99547.00;;;23.03;40.83
8637;BME280;4356;49.068;8.658;2023-05-21T00:30:56;99537.38;;;23.00;40.46
8637;BME280;4356;49.068;8.658;2023-05-21T00:33:22;99536.03;;;23.03;40.52
8637;BME280;4356;49.068;8.658;2023-05-21T00:35:51;99529.44;;;22.99;40.79
8637;BME280;4356;49.068;8.658;2023-05-21T00:38:16;99531.91;;;23.00;40.69
8637;BME280;4356;49.068;8.658;2023-05-21T00:40:42;99524.16;;;22.92;40.53
8637;BME280;4356;49.068;8.658;2023-05-21T00:43:08;99531.59;;;22.97;40.59
8637;BME280;4356;49.068;8.658;2023-05-21T00:45:35;99519.25;;;22.94;40.59
8637;BME280;4356;49.068;8.658;2023-05-21T00:48:04;99504.41;;;22.90;40.69
8637;BME280;4356;49.068;8.658;2023-05-21T00:50:30;99511.53;;;22.91;40.56
8637;BME280;4356;49.068;8.658;2023-05-21T00:52:57;99513.19;;;22.92;40.87
8637;BME280;4356;49.068;8.658;2023-05-21T00:55:24;99513.44;;;22.91;40.60
8637;BME280;4356;49.068;8.658;2023-05-21T00:57:50;99512.63;;;22.90;40.76
8637;BME280;4356;49.068;8.658;2023-05-21T01:00:16;99511.81;;;22.90;40.78
8637;BME280;4356;49.068;8.658;2023-05-21T01:02:42;99506.56;;;22.88;40.50
8637;BME280;4356;49.068;8.658;2023-05-21T01:05:09;99503.53;;;22.85;40.51
8637;BME280;4356;49.068;8.658;2023-05-21T01:07:37;99510.66;;;22.86;40.68
8637;BME280;4356;49.068;8.658;2023-05-21T01:10:05;99501.63;;;22.85;40.56
8637;BME280;4356;49.068;8.658;2023-05-21T01:12:32;99510.41;;;22.87;40.61
8637;BME280;4356;49.068;8.658;2023-05-21T01:15:01;99496.66;;;22.82;40.89
8637;BME280;4356;49.068;8.658;2023-05-21T01:17:28;99493.63;;;22.79;40.73
8637;BME280;4356;49.068;8.658;2023-05-21T01:19:56;99485.91;;;22.76;40.67
8637;BME280;4356;49.068;8.658;2023-05-21T01:22:22;99496.34;;;22.79;40.71
8637;BME280;4356;49.068;8.658;2023-05-21T01:24:49;99496.34;;;22.79;40.74
8637;BME280;4356;49.068;8.658;2023-05-21T01:27:15;99494.38;;;22.74;40.68
8637;BME280;4356;49.068;8.658;2023-05-21T01:29:41;99487.56;;;22.77;40.57
8637;BME280;4356;49.068;8.658;2023-05-21T01:35:28;99497.97;;;22.75;40.65
8637;BME280;4356;49.068;8.658;2023-05-21T01:41:02;99485.38;;;22.74;40.88
8637;BME280;4356;49.068;8.658;2023-05-21T01:43:30;99489.16;;;22.73;40.68
8637;BME280;4356;49.068;8.658;2023-05-21T01:45:58;99493.25;;;22.70;40.67
8637;BME280;4356;49.068;8.658;2023-05-21T01:48:28;99479.81;;;22.69;40.70
8637;BME280;4356;49.068;8.658;2023-05-21T01:50:59;99484.22;;;22.70;40.67
8637;BME280;4356;49.068;8.658;2023-05-21T01:53:26;99480.34;;;22.66;40.65
8637;BME280;4356;49.068;8.658;2023-05-21T01:55:51;99489.13;;;22.68;40.79
8637;BME280;4356;49.068;8.658;2023-05-21T01:58:19;99474.03;;;22.65;40.65
8637;BME280;4356;49.068;8.658;2023-05-21T02:00:45;99477.59;;;22.66;40.78
8637;BME280;4356;49.068;8.658;2023-05-21T02:03:12;99474.84;;;22.66;40.63
8637;BME280;4356;49.068;8.658;2023-05-21T02:05:39;99467.41;;;22.61;40.70
8637;BME280;4356;49.068;8.658;2023-05-21T02:08:05;99465.50;;;22.62;40.62
8637;BME280;4356;49.068;8.658;2023-05-21T02:10:33;99464.66;;;22.61;40.96
8637;BME280;4356;49.068;8.658;2023-05-21T02:12:58;99467.66;;;22.60;40.89
8637;BME280;4356;49.068;8.658;2023-05-21T02:15:24;99473.72;;;22.62;40.94
8637;BME280;4356;49.068;8.658;2023-05-21T02:17:50;99464.13;;;22.59;40.75
8637;BME280;4356;49.068;8.658;2023-05-21T02:20:16;99469.06;;;22.62;40.81
8637;BME280;4356;49.068;8.658;2023-05-21T02:22:44;99468.78;;;22.59;40.86
8637;BME280;4356;49.068;8.658;2023-05-21T02:25:11;99471.25;;;22.60;40.87
8637;BME280;4356;49.068;8.658;2023-05-21T02:27:39;99472.03;;;22.56;40.68
8637;BME280;4356;49.068;8.658;2023-05-21T02:30:07;99460.81;;;22.57;40.80
8637;BME280;4356;49.068;8.658;2023-05-21T02:32:34;99467.38;;;22.56;40.79
8637;BME280;4356;49.068;8.658;2023-05-21T02:35:01;99463.00;;;22.55;40.88
8637;BME280;4356;49.068;8.658;2023-05-21T02:37:28;99465.47;;;22.57;40.83
8637;BME280;4356;49.068;8.658;2023-05-21T02:39:54;99459.06;;;22.51;40.84
8637;BME280;4356;49.068;8.658;2023-05-21T02:42:21;99465.72;;;22.55;40.84
8637;BME280;4356;49.068;8.658;2023-05-21T02:44:48;99467.03;;;22.52;40.94
8637;BME280;4356;49.068;8.658;2023-05-21T02:47:15;99464.56;;;22.51;41.06
8637;BME280;4356;49.068;8.658;2023-05-21T02:49:40;99459.84;;;22.46;40.98
8637;BME280;4356;49.068;8.658;2023-05-21T02:52:06;99466.97;;;22.47;41.01
8637;BME280;4356;49.068;8.658;2023-05-21T02:54:31;99463.13;;;22.48;41.02
8637;BME280;4356;49.068;8.658;2023-05-21T02:56:57;99463.13;;;22.48;40.94
8637;BME280;4356;49.068;8.658;2023-05-21T02:59:22;99460.09;;;22.45;40.84
8637;BME280;4356;49.068;8.658;2023-05-21T03:01:48;99464.50;;;22.46;40.85
8637;BME280;4356;49.068;8.658;2023-05-21T03:04:14;99460.94;;;22.45;41.08
8637;BME280;4356;49.068;8.658;2023-05-21T03:06:41;99462.03;;;22.44;40.97
8637;BME280;4356;49.068;8.658;2023-05-21T03:09:07;99455.72;;;22.44;40.97
8637;BME280;4356;49.068;8.658;2023-05-21T03:11:33;99451.56;;;22.41;40.96
8637;BME280;4356;49.068;8.658;2023-05-21T03:13:58;99454.06;;;22.43;40.95
8637;BME280;4356;49.068;8.658;2023-05-21T03:16:24;99452.41;;;22.42;40.74
8637;BME280;4356;49.068;8.658;2023-05-21T03:18:49;99446.06;;;22.36;40.81
8637;BME280;4356;49.068;8.658;2023-05-21T03:21:15;99444.94;;;22.37;40.87
8637;BME280;4356;49.068;8.658;2023-05-21T03:23:42;99454.84;;;22.38;41.05
8637;BME280;4356;49.068;8.658;2023-05-21T03:26:07;99451.53;;;22.36;40.94
8637;BME280;4356;49.068;8.658;2023-05-21T03:28:36;99452.63;;;22.35;40.91
8637;BME280;4356;49.068;8.658;2023-05-21T03:31:01;99443.28;;;22.31;40.91
8637;BME280;4356;49.068;8.658;2023-05-21T03:33:27;99439.44;;;22.32;40.91
8637;BME280;4356;49.068;8.658;2023-05-21T03:35:52;99450.97;;;22.34;40.65
8637;BME280;4356;49.068;8.658;2023-05-21T03:38:18;99449.31;;;22.33;40.95
8637;BME280;4356;49.068;8.658;2023-05-21T03:40:44;99452.06;;;22.33;40.99
8637;BME280;4356;49.068;8.658;2023-05-21T03:43:09;99444.34;;;22.30;40.96
8637;BME280;4356;49.068;8.658;2023-05-21T03:45:35;99453.38;;;22.31;41.03
8637;BME280;4356;49.068;8.658;2023-05-21T03:48:01;99450.06;;;22.29;41.13
8637;BME280;4356;49.068;8.658;2023-05-21T03:50:26;99454.16;;;22.26;41.03
8637;BME280;4356;49.068;8.658;2023-05-21T03:52:52;99456.06;;;22.26;41.01
8637;BME280;4356;49.068;8.658;2023-05-21T03:55:17;99456.34;;;22.24;40.99
8637;BME280;4356;49.068;8.658;2023-05-21T03:57:43;99447.81;;;22.21;40.78
8637;BME280;4356;49.068;8.658;2023-05-21T04:00:09;99448.63;;;22.21;41.12
8637;BME280;4356;49.068;8.658;2023-05-21T04:02:34;99454.94;;;22.22;41.06
8637;BME280;4356;49.068;8.658;2023-05-21T04:05:00;99459.06;;;22.24;41.16
8637;BME280;4356;49.068;8.658;2023-05-21T04:07:25;99461.50;;;22.21;41.16
8637;BME280;4356;49.068;8.658;2023-05-21T04:09:51;99463.13;;;22.22;41.06
8637;BME280;4356;49.068;8.658;2023-05-21T04:12:17;99461.72;;;22.19;41.21
8637;BME280;4356;49.068;8.658;2023-05-21T04:14:44;99459.78;;;22.15;41.13
8637;BME280;4356;49.068;8.658;2023-05-21T04:17:11;99464.41;;;22.14;41.23
8637;BME280;4356;49.068;8.658;2023-05-21T04:19:39;99474.28;;;22.15;41.21
8637;BME280;4356;49.068;8.658;2023-05-21T04:22:05;99468.25;;;22.13;41.12
8637;BME280;4356;49.068;8.658;2023-05-21T04:24:30;99473.47;;;22.15;41.31
8637;BME280;4356;49.068;8.658;2023-05-21T04:26:56;99473.97;;;22.12;41.60
8637;BME280;4356;49.068;8.658;2023-05-21T04:29:26;99470.16;;;22.13;41.43
8637;BME280;4356;49.068;8.658;2023-05-21T04:31:51;99476.94;;;22.10;41.13
8637;BME280;4356;49.068;8.658;2023-05-21T04:34:17;99479.94;;;22.09;41.35
8637;BME280;4356;49.068;8.658;2023-05-21T04:36:43;99476.91;;;22.05;41.33
8637;BME280;4356;49.068;8.658;2023-05-21T04:39:13;99488.16;;;22.09;41.29
8637;BME280;4356;49.068;8.658;2023-05-21T04:41:39;99476.56;;;22.02;41.52
8637;BME280;4356;49.068;8.658;2023-05-21T04:44:08;99487.34;;;22.08;41.41
8637;BME280;4356;49.068;8.658;2023-05-21T04:46:34;99485.16;;;22.10;41.26
8637;BME280;4356;49.068;8.658;2023-05-21T04:49:01;99487.56;;;22.07;41.42
8637;BME280;4356;49.068;8.658;2023-05-21T04:51:30;99478.25;;;22.03;41.29
8637;BME280;4356;49.068;8.658;2023-05-21T04:53:56;99487.53;;;22.02;41.64
8637;BME280;4356;49.068;8.658;2023-05-21T04:56:23;99487.84;;;22.05;41.36
8637;BME280;4356;49.068;8.658;2023-05-21T04:58:54;99491.66;;;22.04;41.30
8637;BME280;4356;49.068;8.658;2023-05-21T05:01:21;99500.72;;;22.05;41.21
8637;BME280;4356;49.068;8.658;2023-05-21T05:03:51;99494.41;;;22.04;41.52
8637;BME280;4356;49.068;8.658;2023-05-21T05:06:17;99498.22;;;22.03;41.38
8637;BME280;4356;49.068;8.658;2023-05-21T05:08:43;99494.41;;;22.04;41.54
8637;BME280;4356;49.068;8.658;2023-05-21T05:11:10;99498.22;;;22.03;41.49
8637;BME280;4356;49.068;8.658;2023-05-21T05:13:36;99491.63;;;21.99;41.48
8637;BME280;4356;49.068;8.658;2023-05-21T05:16:01;99496.81;;;22.01;41.28
8637;BME280;4356;49.068;8.658;2023-05-21T05:18:28;99502.03;;;22.02;41.33
8637;BME280;4356;49.068;8.658;2023-05-21T05:20:53;99488.88;;;21.99;41.55
8637;BME280;4356;49.068;8.658;2023-05-21T05:23:19;99500.13;;;22.03;41.49
8637;BME280;4356;49.068;8.658;2023-05-21T05:25:45;99493.25;;;22.00;41.45
8637;BME280;4356;49.068;8.658;2023-05-21T05:28:10;99497.88;;;22.00;41.23
8637;BME280;4356;49.068;8.658;2023-05-21T05:30:36;99503.09;;;22.01;41.31
8637;BME280;4356;49.068;8.658;2023-05-21T05:33:01;99494.91;;;22.01;41.47
8637;BME280;4356;49.068;8.658;2023-05-21T05:35:27;99491.34;;;22.01;41.46
8637;BME280;4356;49.068;8.658;2023-05-21T05:37:52;99492.41;;;22.00;41.51
8637;BME280;4356;49.068;8.658;2023-05-21T05:40:18;99486.94;;;22.00;41.41
8637;BME280;4356;49.068;8.658;2023-05-21T05:42:43;99481.16;;;21.96;41.61
8637;BME280;4356;49.068;8.658;2023-05-21T05:45:09;99487.47;;;21.97;41.62
8637;BME280;4356;49.068;8.658;2023-05-21T05:47:35;99482.81;;;21.97;41.58
8637;BME280;4356;49.068;8.658;2023-05-21T05:50:00;99483.09;;;21.96;41.40
8637;BME280;4356;49.068;8.658;2023-05-21T05:52:26;99494.66;;;22.03;41.59
8637;BME280;4356;49.068;8.658;2023-05-21T05:54:52;99487.22;;;21.98;41.69
8637;BME280;4356;49.068;8.658;2023-05-21T05:57:17;99472.63;;;21.93;41.60
8637;BME280;4356;49.068;8.658;2023-05-21T05:59:42;99482.81;;;21.97;41.78
8637;BME280;4356;49.068;8.658;2023-05-21T06:02:08;99497.16;;;22.04;41.90
8637;BME280;4356;49.068;8.658;2023-05-21T06:04:33;99497.41;;;22.03;41.47
8637;BME280;4356;49.068;8.658;2023-05-21T06:06:59;99491.66;;;22.04;41.71
8637;BME280;4356;49.068;8.658;2023-05-21T06:09:25;99487.56;;;22.07;41.75
8637;BME280;4356;49.068;8.658;2023-05-21T06:11:50;99475.44;;;21.98;41.73
8637;BME280;4356;49.068;8.658;2023-05-21T06:14:16;99495.03;;;22.11;41.67
8637;BME280;4356;49.068;8.658;2023-05-21T06:16:42;99490.09;;;22.08;41.61
8637;BME280;4356;49.068;8.658;2023-05-21T06:19:07;99481.47;;;22.00;41.57
8637;BME280;4356;49.068;8.658;2023-05-21T06:21:33;99496.94;;;22.11;41.64
8637;BME280;4356;49.068;8.658;2023-05-21T06:23:58;99501.66;;;22.15;41.80
8637;BME280;4356;49.068;8.658;2023-05-21T06:26:24;99507.72;;;22.17;41.64
8637;BME280;4356;49.068;8.658;2023-05-21T06:28:49;99504.72;;;22.19;41.66
8637;BME280;4356;49.068;8.658;2023-05-21T06:31:15;99497.09;;;22.21;41.61
8637;BME280;4356;49.068;8.658;2023-05-21T06:33:41;99496.81;;;22.22;41.53
8637;BME280;4356;49.068;8.658;2023-05-21T06:36:07;99494.66;;;22.24;41.43
8637;BME280;4356;49.068;8.658;2023-05-21T06:38:33;99499.59;;;22.27;41.49
8637;BME280;4356;49.068;8.658;2023-05-21T06:40:58;99495.78;;;22.28;41.36
8637;BME280;4356;49.068;8.658;2023-05-21T06:43:24;99506.22;;;22.31;41.49
8637;BME280;4356;49.068;8.658;2023-05-21T06:45:49;99504.06;;;22.33;41.43
8637;BME280;4356;49.068;8.658;2023-05-21T06:48:15;99493.38;;;22.32;41.48
8637;BME280;4356;49.068;8.658;2023-05-21T06:50:42;99499.16;;;22.35;41.42
8637;BME280;4356;49.068;8.658;2023-05-21T06:53:08;99503.84;;;22.40;41.37
8637;BME280;4356;49.068;8.658;2023-05-21T06:55:34;99504.44;;;22.42;41.61
8637;BME280;4356;49.068;8.658;2023-05-21T06:57:59;99501.69;;;22.42;41.41
8637;BME280;4356;49.068;8.658;2023-05-21T07:00:25;99499.53;;;22.44;41.43
8637;BME280;4356;49.068;8.658;2023-05-21T07:02:51;99506.94;;;22.48;41.33
8637;BME280;4356;49.068;8.658;2023-05-21T07:05:16;99485.78;;;22.39;41.35
8637;BME280;4356;49.068;8.658;2023-05-21T07:07:42;99488.88;;;22.47;41.21
8637;BME280;4356;49.068;8.658;2023-05-21T07:10:08;99499.31;;;22.50;41.33
8637;BME280;4356;49.068;8.658;2023-05-21T07:12:33;99500.47;;;22.55;41.08
8637;BME280;4356;49.068;8.658;2023-05-21T07:14:59;99493.09;;;22.55;41.19
8637;BME280;4356;49.068;8.658;2023-05-21T07:17:25;99495.25;;;22.53;41.32
8637;BME280;4356;49.068;8.658;2023-05-21T07:19:50;99504.94;;;22.61;40.97
8637;BME280;4356;49.068;8.658;2023-05-21T07:22:16;99485.72;;;22.56;41.04
8637;BME280;4356;49.068;8.658;2023-05-21T07:24:41;99498.69;;;22.65;41.03
8637;BME280;4356;49.068;8.658;2023-05-21T07:27:10;99491.28;;;22.66;41.11
8637;BME280;4356;49.068;8.658;2023-05-21T07:29:35;99483.84;;;22.61;40.93
8637;BME280;4356;49.068;8.658;2023-05-21T07:32:01;99496.31;;;22.74;41.14
8637;BME280;4356;49.068;8.658;2023-05-21T07:34:27;99500.16;;;22.78;41.08
8637;BME280;4356;49.068;8.658;2023-05-21T07:36:53;99487.00;;;22.75;40.93
8637;BME280;4356;49.068;8.658;2023-05-21T07:39:18;99484.84;;;22.77;40.79
8637;BME280;4356;49.068;8.658;2023-05-21T07:41:44;99486.53;;;22.83;41.03
8637;BME280;4356;49.068;8.658;2023-05-21T07:44:09;99482.44;;;22.85;40.97
8637;BME280;4356;49.068;8.658;2023-05-21T07:46:35;99492.38;;;22.91;40.98
8637;BME280;4356;49.068;8.658;2023-05-21T07:49:01;99484.72;;;22.93;40.99
8637;BME280;4356;49.068;8.658;2023-05-21T07:51:27;99475.66;;;22.93;40.86
8637;BME280;4356;49.068;8.658;2023-05-21T07:53:54;99465.84;;;22.97;40.86
8637;BME280;4356;49.068;8.658;2023-05-21T07:56:21;99472.94;;;22.98;40.90
8637;BME280;4356;49.068;8.658;2023-05-21T07:58:47;99476.88;;;23.07;40.65
8637;BME280;4356;49.068;8.658;2023-05-21T08:01:12;99469.75;;;23.06;40.71
8637;BME280;4356;49.068;8.658;2023-05-21T08:03:38;99473.34;;;23.11;40.49
8637;BME280;4356;49.068;8.658;2023-05-21T08:06:03;99477.75;;;23.17;40.54
8637;BME280;4356;49.068;8.658;2023-05-21T08:08:29;99481.91;;;23.20;40.45
8637;BME280;4356;49.068;8.658;2023-05-21T08:10:55;99474.25;;;23.22;40.42
8637;BME280;4356;49.068;8.658;2023-05-21T08:13:21;99481.44;;;23.28;40.33
8637;BME280;4356;49.068;8.658;2023-05-21T08:15:47;99477.63;;;23.29;40.32
8637;BME280;4356;49.068;8.658;2023-05-21T08:18:13;99471.59;;;23.32;40.38
8637;BME280;4356;49.068;8.658;2023-05-21T08:20:39;99473.84;;;23.35;40.45
8637;BME280;4356;49.068;8.658;2023-05-21T08:23:05;99469.72;;;23.37;40.35
8637;BME280;4356;49.068;8.658;2023-05-21T08:25:31;99476.06;;;23.43;40.24
8637;BME280;4356;49.068;8.658;2023-05-21T08:27:56;99473.91;;;23.50;40.33
8637;BME280;4356;49.068;8.658;2023-05-21T08:30:22;99460.47;;;23.48;40.36
8637;BME280;4356;49.068;8.658;2023-05-21T08:32:48;99471.75;;;23.57;40.26
8637;BME280;4356;49.068;8.658;2023-05-21T08:35:14;99473.44;;;23.58;40.06
8637;BME280;4356;49.068;8.658;2023-05-21T08:37:39;99472.88;;;23.61;40.13
8637;BME280;4356;49.068;8.658;2023-05-21T08:40:05;99451.19;;;23.55;40.04
8637;BME280;4356;49.068;8.658;2023-05-21T08:42:38;99471.56;;;23.69;40.22
8637;BME280;4356;49.068;8.658;2023-05-21T08:45:04;99473.75;;;23.72;40.04
8637;BME280;4356;49.068;8.658;2023-05-21T08:47:34;99460.28;;;23.65;39.93
8637;BME280;4356;49.068;8.658;2023-05-21T08:50:02;99463.06;;;23.75;40.09
8637;BME280;4356;49.068;8.658;2023-05-21T08:52:32;99466.94;;;23.79;39.98
8637;BME280;4356;49.068;8.658;2023-05-21T08:54:58;99466.44;;;23.82;40.05
8637;BME280;4356;49.068;8.658;2023-05-21T08:57:26;99472.50;;;23.89;39.84
8637;BME280;4356;49.068;8.658;2023-05-21T08:59:51;99468.94;;;23.89;39.90
8637;BME280;4356;49.068;8.658;2023-05-21T09:02:17;99461.25;;;23.91;39.66
8637;BME280;4356;49.068;8.658;2023-05-21T09:04:44;99468.44;;;23.97;39.81
8637;BME280;4356;49.068;8.658;2023-05-21T09:07:14;99476.44;;;24.03;39.60
8637;BME280;4356;49.068;8.658;2023-05-21T09:10:05;99472.88;;;24.08;39.70
8637;BME280;4356;49.068;8.658;2023-05-21T09:12:33;99477.00;;;24.10;39.63
8637;BME280;4356;49.068;8.658;2023-05-21T09:15:00;99469.31;;;24.12;39.42
8637;BME280;4356;49.068;8.658;2023-05-21T09:17:26;99461.94;;;24.13;39.59
8637;BME280;4356;49.068;8.658;2023-05-21T09:22:35;99471.00;;;24.23;39.34
8637;BME280;4356;49.068;8.658;2023-05-21T09:25:04;99477.91;;;24.31;38.89
8637;BME280;4356;49.068;8.658;2023-05-21T09:27:31;99473.50;;;24.35;39.14
8637;BME280;4356;49.068;8.658;2023-05-21T09:29:56;99474.34;;;24.35;38.88
8637;BME280;4356;49.068;8.658;2023-05-21T09:32:22;99474.63;;;24.39;39.04
8637;BME280;4356;49.068;8.658;2023-05-21T09:34:48;99473.56;;;24.45;38.94
8637;BME280;4356;49.068;8.658;2023-05-21T09:37:15;99473.28;;;24.46;38.93
8637;BME280;4356;49.068;8.658;2023-05-21T09:39:40;99468.63;;;24.47;38.92
8637;BME280;4356;49.068;8.658;2023-05-21T09:42:06;99468.63;;;24.52;38.78
8637;BME280;4356;49.068;8.658;2023-05-21T09:44:33;99468.63;;;24.57;38.72
8637;BME280;4356;49.068;8.658;2023-05-21T09:47:00;99470.00;;;24.60;38.63
8637;BME280;4356;49.068;8.658;2023-05-21T09:49:26;99475.22;;;24.66;38.79
8637;BME280;4356;49.068;8.658;2023-05-21T09:51:58;99481.28;;;24.68;38.78
8637;BME280;4356;49.068;8.658;2023-05-21T09:54:25;99462.31;;;24.62;38.68
8637;BME280;4356;49.068;8.658;2023-05-21T09:56:54;99477.22;;;24.71;38.76
8637;BME280;4356;49.068;8.658;2023-05-21T09:59:20;99482.16;;;24.74;38.59
8637;BME280;4356;49.068;8.658;2023-05-21T10:01:49;99475.00;;;24.73;38.38
8637;BME280;4356;49.068;8.658;2023-05-21T10:04:16;99483.25;;;24.78;38.63
8637;BME280;4356;49.068;8.658;2023-05-21T10:06:42;99479.16;;;24.80;38.49
8637;BME280;4356;49.068;8.658;2023-05-21T10:09:10;99472.81;;;24.80;38.43
8637;BME280;4356;49.068;8.658;2023-05-21T10:11:36;99482.69;;;24.86;38.60
8637;BME280;4356;49.068;8.658;2023-05-21T10:14:05;99484.91;;;24.89;38.59
8637;BME280;4356;49.068;8.658;2023-05-21T10:16:34;99478.59;;;24.88;38.35
8637;BME280;4356;49.068;8.658;2023-05-21T10:19:00;99470.91;;;24.85;38.24
8637;BME280;4356;49.068;8.658;2023-05-21T10:21:27;99467.88;;;24.87;38.52
8637;BME280;4356;49.068;8.658;2023-05-21T10:23:54;99473.34;;;24.97;38.60
8637;BME280;4356;49.068;8.658;2023-05-21T10:26:22;99462.38;;;24.97;38.49
8637;BME280;4356;49.068;8.658;2023-05-21T10:28:50;99465.94;;;25.02;38.26
8637;BME280;4356;49.068;8.658;2023-05-21T10:31:17;99456.34;;;25.00;38.32
8637;BME280;4356;49.068;8.658;2023-05-21T10:33:44;99464.31;;;25.01;38.56
8637;BME280;4356;49.068;8.658;2023-05-21T10:36:10;99472.81;;;25.05;38.56
8637;BME280;4356;49.068;8.658;2023-05-21T10:38:37;99461.28;;;25.08;38.38
8637;BME280;4356;49.068;8.658;2023-05-21T10:41:04;99462.66;;;25.05;38.51
8637;BME280;4356;49.068;8.658;2023-05-21T11:00:52;99454.41;;;25.15;38.52
8637;BME280;4356;49.068;8.658;2023-05-21T11:03:21;99454.66;;;25.19;38.54
8637;BME280;4356;49.068;8.658;2023-05-21T11:05:51;99457.41;;;25.24;38.21
8637;BME280;4356;49.068;8.658;2023-05-21T11:08:28;99462.38;;;25.27;38.51
8637;BME280;4356;49.068;8.658;2023-05-21T11:11:00;99451.91;;;25.24;38.22
8637;BME280;4356;49.068;8.658;2023-05-21T11:13:28;99457.13;;;25.30;38.52
8637;BME280;4356;49.068;8.658;2023-05-21T11:16:13;99453.00;;;25.33;38.11
8637;BME280;4356;49.068;8.658;2023-05-21T11:21:06;99456.00;;;25.36;38.09
8637;BME280;4356;49.068;8.658;2023-05-21T11:23:55;99451.63;;;25.35;38.44
8637;BME280;4356;49.068;8.658;2023-05-21T11:26:26;99459.88;;;25.40;38.40
8637;BME280;4356;49.068;8.658;2023-05-21T11:31:31;99450.81;;;25.45;38.23
8637;BME280;4356;49.068;8.658;2023-05-21T11:36:44;99450.25;;;25.48;38.20
8637;BME280;4356;49.068;8.658;2023-05-21T11:39:14;99446.94;;;25.51;38.14
8637;BME280;4356;49.068;8.658;2023-05-21T11:42:00;99448.31;;;25.54;37.95
8637;BME280;4356;49.068;8.658;2023-05-21T11:47:07;99445.53;;;25.59;37.75
8637;BME280;4356;49.068;8.658;2023-05-21T11:49:34;99447.22;;;25.60;37.75
8637;BME280;4356;49.068;8.658;2023-05-21T11:52:01;99446.34;;;25.64;38.03
8637;BME280;4356;49.068;8.658;2023-05-21T11:54:27;99441.69;;;25.65;37.92
8637;BME280;4356;49.068;8.658;2023-05-21T11:57:08;99449.38;;;25.68;37.78
8637;BME280;4356;49.068;8.658;2023-05-21T11:59:34;99446.06;;;25.66;37.90
8637;BME280;4356;49.068;8.658;2023-05-21T12:02:01;99439.75;;;25.70;37.87
8637;BME280;4356;49.068;8.658;2023-05-21T12:04:31;99447.44;;;25.73;37.85
8637;BME280;4356;49.068;8.658;2023-05-21T12:06:57;99443.59;;;25.74;37.61
8637;BME280;4356;49.068;8.658;2023-05-21T12:09:23;99439.16;;;25.73;37.81
8637;BME280;4356;49.068;8.658;2023-05-21T12:11:49;99440.25;;;25.77;37.89
8637;BME280;4356;49.068;8.658;2023-05-21T12:14:18;99428.72;;;25.75;37.56
8637;BME280;4356;49.068;8.658;2023-05-21T12:16:43;99444.41;;;25.80;37.67
8637;BME280;4356;49.068;8.658;2023-05-21T12:19:09;99444.38;;;25.85;37.89
8637;BME280;4356;49.068;8.658;2023-05-21T12:21:35;99431.69;;;25.84;37.48
8637;BME280;4356;49.068;8.658;2023-05-21T12:24:01;99435.00;;;25.86;37.53
8637;BME280;4356;49.068;8.658;2023-05-21T12:26:26;99439.13;;;25.88;37.78
8637;BME280;4356;49.068;8.658;2023-05-21T12:28:53;99438.56;;;25.91;37.48
8637;BME280;4356;49.068;8.658;2023-05-21T12:31:21;99449.81;;;25.95;37.37
8637;BME280;4356;49.068;8.658;2023-05-21T12:33:52;99442.94;;;25.97;37.22
8637;BME280;4356;49.068;8.658;2023-05-21T12:36:35;99445.69;;;25.97;37.45
8637;BME280;4356;49.068;8.658;2023-05-21T12:39:02;99447.88;;;26.00;37.49
8637;BME280;4356;49.068;8.658;2023-05-21T12:41:28;99441.28;;;26.01;37.27
8637;BME280;4356;49.068;8.658;2023-05-21T12:43:54;99438.81;;;26.00;37.31
8637;BME280;4356;49.068;8.658;2023-05-21T12:46:20;99435.47;;;26.03;37.10
8637;BME280;4356;49.068;8.658;2023-05-21T12:48:53;99436.84;;;26.05;37.01
8637;BME280;4356;49.068;8.658;2023-05-21T12:51:20;99438.53;;;26.06;37.20
8637;BME280;4356;49.068;8.658;2023-05-21T12:53:46;99440.69;;;26.09;37.15
8637;BME280;4356;49.068;8.658;2023-05-21T12:56:13;99434.66;;;26.12;36.93
8637;BME280;4356;49.068;8.658;2023-05-21T12:58:40;99428.59;;;26.10;37.04
8637;BME280;4356;49.068;8.658;2023-05-21T13:01:10;99433.53;;;26.13;36.90
8637;BME280;4356;49.068;8.658;2023-05-21T13:03:37;99429.41;;;26.11;36.93
8637;BME280;4356;49.068;8.658;2023-05-21T13:06:07;99435.16;;;26.14;36.96
8637;BME280;4356;49.068;8.658;2023-05-21T13:08:33;99434.06;;;26.15;37.12
8637;BME280;4356;49.068;8.658;2023-05-21T13:11:02;99436.81;;;26.15;36.84
8637;BME280;4356;49.068;8.658;2023-05-21T13:13:29;99426.66;;;26.16;36.87
8637;BME280;4356;49.068;8.658;2023-05-21T13:15:54;99428.81;;;26.19;37.08
8637;BME280;4356;49.068;8.658;2023-05-21T13:18:20;99421.69;;;26.18;37.10
8637;BME280;4356;49.068;8.658;2023-05-21T13:20:47;99430.19;;;26.21;36.68
8637;BME280;4356;49.068;8.658;2023-05-21T13:23:16;99427.69;;;26.20;36.85
8637;BME280;4356;49.068;8.658;2023-05-21T13:25:42;99429.06;;;26.22;36.79
8637;BME280;4356;49.068;8.658;2023-05-21T13:28:07;99430.72;;;26.23;36.90
8637;BME280;4356;49.068;8.658;2023-05-21T13:30:35;99427.44;;;26.21;36.90
8637;BME280;4356;49.068;8.658;2023-05-21T13:33:01;99424.41;;;26.23;36.83
8637;BME280;4356;49.068;8.658;2023-05-21T13:35:26;99416.41;;;26.21;36.78
8637;BME280;4356;49.068;8.658;2023-05-21T13:37:52;99424.94;;;26.25;36.97
8637;BME280;4356;49.068;8.658;2023-05-21T13:40:18;99423.81;;;26.26;36.86
8637;BME280;4356;49.068;8.658;2023-05-21T13:42:46;99419.69;;;26.23;36.72
8637;BME280;4356;49.068;8.658;2023-05-21T13:45:13;99423.81;;;26.26;36.59
8637;BME280;4356;49.068;8.658;2023-05-21T13:47:40;99425.75;;;26.25;37.13
8637;BME280;4356;49.068;8.658;2023-05-21T13:50:09;99421.59;;;26.28;37.12
8637;BME280;4356;49.068;8.658;2023-05-21T13:52:35;99421.06;;;26.26;36.90
8637;BME280;4356;49.068;8.658;2023-05-21T13:55:01;99419.97;;;26.27;37.10
8637;BME280;4356;49.068;8.658;2023-05-21T13:57:27;99420.78;;;26.27;37.18